My Paraffin — ZCGG8 — position and weather

sailwx.info

Track history (hours):
 
Tides and Currents Weather Stations Pressure Air Temp Water Temp Dewpoint Dewpoint Depression Visibility Wind Speed Wind Dir Waves Ship Positions

My Paraffin

Last reported at 2014-Sep-08 13:16 UTC. Time now 2014-Sep-18 01:39 UTC.
Position N 44°08' E 008°16'.
Warning: this ship's position is 9 days out of date.

Length 60 m; draft 3.4 m.

Type: Pleasure craft. MMSI: 319646000.

Date/timePositionNaut miles runAvg speedWind from/ knotsBaromVisibWave heightAir tempDewpointWater temp
2014-Sep-08 13:16N 44°08' E 008°16'0 0.0
2014-Sep-08 01:27N 44°08' E 008°16'0 0.0
2014-Sep-08 00:17N 44°08' E 008°16'0 0.0
2014-Sep-07 23:32N 44°08' E 008°16'0 0.0
2014-Sep-07 16:33N 44°08' E 008°16'0 0.0
2014-Sep-07 09:08N 44°08' E 008°16'0 0.0
2014-Sep-06 23:27N 44°08' E 008°16'0 0.0
2014-Sep-06 22:31N 44°08' E 008°16'0 0.0
2014-Sep-06 20:17N 44°08' E 008°16'0 0.0
2014-Sep-06 19:30N 44°08' E 008°16'0 0.0
2014-Sep-06 17:33N 44°08' E 008°16'0 0.0
2014-Sep-06 16:20N 44°08' E 008°16'0 0.0
2014-Sep-06 15:17N 44°08' E 008°16'0 0.0
2014-Sep-06 14:33N 44°08' E 008°16'0 0.0
2014-Sep-06 13:28N 44°08' E 008°16'0 0.0
2014-Sep-06 12:33N 44°08' E 008°16'0 0.0
2014-Sep-06 11:33N 44°08' E 008°16'0 0.0
2014-Sep-06 10:29N 44°08' E 008°16'0 0.0
2014-Sep-06 09:34N 44°08' E 008°16'0 0.0
2014-Sep-05 14:15N 44°08' E 008°16'0 0.0
2014-Sep-05 13:29N 44°08' E 008°16'0 0.0
2014-Sep-05 12:22N 44°08' E 008°16'0 0.0
2014-Sep-04 13:30N 44°08' E 008°16'0 0.0
2014-Sep-04 12:33N 44°08' E 008°16'0 0.0
2014-Sep-04 10:33N 44°08' E 008°16'0 0.0
2014-Sep-04 08:12N 44°08' E 008°16'0 0.0
2014-Sep-04 07:33N 44°08' E 008°16'  
2014-Sep-01 07:14N 43°41' E 007°19'1 0.2
2014-Sep-01 03:09N 43°42' E 007°19'0 0.0
2014-Sep-01 02:33N 43°42' E 007°19'0 0.0
2014-Sep-01 01:29N 43°42' E 007°19'0 0.0
2014-Sep-01 00:33N 43°42' E 007°19'0 0.0
2014-Aug-31 23:32N 43°42' E 007°19'0 0.0
2014-Aug-31 22:29N 43°42' E 007°19'0 0.0
2014-Aug-31 21:31N 43°42' E 007°19'0 0.0
2014-Aug-31 20:31N 43°42' E 007°19'0 0.0
2014-Aug-31 19:31N 43°42' E 007°19'0 0.0
2014-Aug-31 18:29N 43°42' E 007°19'0 0.0
2014-Aug-31 17:33N 43°42' E 007°19'0 0.0
2014-Aug-31 16:29N 43°42' E 007°19'0 0.0
2014-Aug-31 15:31N 43°42' E 007°19'0 0.0
2014-Aug-31 14:33N 43°42' E 007°19'0 0.0
2014-Aug-31 13:30N 43°42' E 007°19'0 0.0
2014-Aug-31 12:31N 43°42' E 007°19'0 0.0
2014-Aug-31 11:32N 43°42' E 007°19'0 0.0
2014-Aug-31 10:27N 43°42' E 007°19'0 0.0
2014-Aug-31 09:22N 43°42' E 007°19'0 0.0
2014-Aug-31 08:25N 43°42' E 007°19'1 1.6
2014-Aug-31 07:33N 43°40' E 007°18'1211.6
2014-Aug-31 06:33N 43°31' E 007°08'1211.7
2014-Aug-31 05:33N 43°24' E 006°55'1211.8
2014-Aug-31 04:33N 43°18' E 006°41'3 3.3
2014-Aug-31 03:33N 43°16' E 006°37'0 0.0
2014-Aug-31 02:33N 43°16' E 006°37'0 0.0
2014-Aug-31 01:33N 43°16' E 006°37'0 0.0
2014-Aug-31 00:33N 43°16' E 006°37'0 0.0
2014-Aug-30 23:33N 43°16' E 006°37'0 0.0
2014-Aug-30 22:33N 43°16' E 006°37'0 0.0
2014-Aug-30 21:33N 43°16' E 006°37'0 0.0
2014-Aug-30 20:32N 43°16' E 006°37'0 0.0
2014-Aug-30 19:33N 43°16' E 006°37'0 0.0
2014-Aug-30 18:32N 43°16' E 006°37'0 0.0
2014-Aug-30 17:33N 43°16' E 006°37'0 0.0
2014-Aug-30 16:33N 43°16' E 006°37'0 0.0
2014-Aug-30 15:33N 43°16' E 006°37'0 0.0
2014-Aug-30 14:33N 43°16' E 006°37'0 0.0
2014-Aug-30 13:33N 43°16' E 006°37'0 0.0
2014-Aug-30 12:33N 43°16' E 006°37'0 0.0
2014-Aug-30 11:33N 43°16' E 006°37'0 0.0
2014-Aug-30 10:33N 43°16' E 006°37'0 0.0
2014-Aug-30 09:33N 43°16' E 006°37'0 0.0
2014-Aug-30 08:32N 43°16' E 006°37'0 0.0
2014-Aug-30 07:33N 43°16' E 006°37'0 0.0
2014-Aug-30 06:33N 43°16' E 006°38'8 7.5
2014-Aug-30 05:33N 43°20' E 006°46'1610.8
2014-Aug-30 04:03N 43°32' E 007°01'0 0.0
2014-Aug-30 03:33N 43°32' E 007°01'0 0.0
2014-Aug-30 02:33N 43°32' E 007°01'0 0.0
2014-Aug-30 01:14N 43°32' E 007°01'0 0.0
2014-Aug-30 00:26N 43°32' E 007°01'0 0.0
2014-Aug-29 23:17N 43°32' E 007°01'0 0.0
2014-Aug-29 22:28N 43°32' E 007°01'0 0.0
2014-Aug-29 21:32N 43°32' E 007°01'0 0.0
2014-Aug-29 20:31N 43°32' E 007°01'0 0.0
2014-Aug-29 18:19N 43°32' E 007°01'0 0.0
2014-Aug-29 16:33N 43°32' E 007°01'0 0.0
2014-Aug-29 15:32N 43°32' E 007°01'0 0.0
2014-Aug-29 14:32N 43°32' E 007°01'0 0.0
2014-Aug-29 13:28N 43°32' E 007°01'  
Track history (hours):
 
Tides and Currents Weather Stations Pressure Air Temp Water Temp Dewpoint Dewpoint Depression Visibility Wind Speed Wind Dir Waves Ship Positions

My Paraffin

Last reported at 2014-Sep-08 13:16 UTC. Time now 2014-Sep-18 01:39 UTC.
Position N 44°08' E 008°16'.
Warning: this ship's position is 9 days out of date.

Length 60 m; draft 3.4 m.

Type: Pleasure craft. MMSI: 319646000.

Date/timePositionNaut miles runAvg speedWind from/ knotsBaromVisibWave heightAir tempDewpointWater temp
2014-Sep-08 13:16N 44°08' E 008°16'0 0.0
2014-Sep-08 01:27N 44°08' E 008°16'0 0.0
2014-Sep-08 00:17N 44°08' E 008°16'0 0.0
2014-Sep-07 23:32N 44°08' E 008°16'0 0.0
2014-Sep-07 16:33N 44°08' E 008°16'0 0.0
2014-Sep-07 09:08N 44°08' E 008°16'0 0.0
2014-Sep-06 23:27N 44°08' E 008°16'0 0.0
2014-Sep-06 22:31N 44°08' E 008°16'0 0.0
2014-Sep-06 20:17N 44°08' E 008°16'0 0.0
2014-Sep-06 19:30N 44°08' E 008°16'0 0.0
2014-Sep-06 17:33N 44°08' E 008°16'0 0.0
2014-Sep-06 16:20N 44°08' E 008°16'0 0.0
2014-Sep-06 15:17N 44°08' E 008°16'0 0.0
2014-Sep-06 14:33N 44°08' E 008°16'0 0.0
2014-Sep-06 13:28N 44°08' E 008°16'0 0.0
2014-Sep-06 12:33N 44°08' E 008°16'0 0.0
2014-Sep-06 11:33N 44°08' E 008°16'0 0.0
2014-Sep-06 10:29N 44°08' E 008°16'0 0.0
2014-Sep-06 09:34N 44°08' E 008°16'0 0.0
2014-Sep-05 14:15N 44°08' E 008°16'0 0.0
2014-Sep-05 13:29N 44°08' E 008°16'0 0.0
2014-Sep-05 12:22N 44°08' E 008°16'0 0.0
2014-Sep-04 13:30N 44°08' E 008°16'0 0.0
2014-Sep-04 12:33N 44°08' E 008°16'0 0.0
2014-Sep-04 10:33N 44°08' E 008°16'0 0.0
2014-Sep-04 08:12N 44°08' E 008°16'0 0.0
2014-Sep-04 07:33N 44°08' E 008°16'  
2014-Sep-01 07:14N 43°41' E 007°19'1 0.2
2014-Sep-01 03:09N 43°42' E 007°19'0 0.0
2014-Sep-01 02:33N 43°42' E 007°19'0 0.0
2014-Sep-01 01:29N 43°42' E 007°19'0 0.0
2014-Sep-01 00:33N 43°42' E 007°19'0 0.0
2014-Aug-31 23:32N 43°42' E 007°19'0 0.0
2014-Aug-31 22:29N 43°42' E 007°19'0 0.0
2014-Aug-31 21:31N 43°42' E 007°19'0 0.0
2014-Aug-31 20:31N 43°42' E 007°19'0 0.0
2014-Aug-31 19:31N 43°42' E 007°19'0 0.0
2014-Aug-31 18:29N 43°42' E 007°19'0 0.0
2014-Aug-31 17:33N 43°42' E 007°19'0 0.0
2014-Aug-31 16:29N 43°42' E 007°19'0 0.0
2014-Aug-31 15:31N 43°42' E 007°19'0 0.0
2014-Aug-31 14:33N 43°42' E 007°19'0 0.0
2014-Aug-31 13:30N 43°42' E 007°19'0 0.0
2014-Aug-31 12:31N 43°42' E 007°19'0 0.0
2014-Aug-31 11:32N 43°42' E 007°19'0 0.0
2014-Aug-31 10:27N 43°42' E 007°19'0 0.0
2014-Aug-31 09:22N 43°42' E 007°19'0 0.0
2014-Aug-31 08:25N 43°42' E 007°19'1 1.6
2014-Aug-31 07:33N 43°40' E 007°18'1211.6
2014-Aug-31 06:33N 43°31' E 007°08'1211.7
2014-Aug-31 05:33N 43°24' E 006°55'1211.8
2014-Aug-31 04:33N 43°18' E 006°41'3 3.3
2014-Aug-31 03:33N 43°16' E 006°37'0 0.0
2014-Aug-31 02:33N 43°16' E 006°37'0 0.0
2014-Aug-31 01:33N 43°16' E 006°37'0 0.0
2014-Aug-31 00:33N 43°16' E 006°37'0 0.0
2014-Aug-30 23:33N 43°16' E 006°37'0 0.0
2014-Aug-30 22:33N 43°16' E 006°37'0 0.0
2014-Aug-30 21:33N 43°16' E 006°37'0 0.0
2014-Aug-30 20:32N 43°16' E 006°37'0 0.0
2014-Aug-30 19:33N 43°16' E 006°37'0 0.0
2014-Aug-30 18:32N 43°16' E 006°37'0 0.0
2014-Aug-30 17:33N 43°16' E 006°37'0 0.0
2014-Aug-30 16:33N 43°16' E 006°37'0 0.0
2014-Aug-30 15:33N 43°16' E 006°37'0 0.0
2014-Aug-30 14:33N 43°16' E 006°37'0 0.0
2014-Aug-30 13:33N 43°16' E 006°37'0 0.0
2014-Aug-30 12:33N 43°16' E 006°37'0 0.0
2014-Aug-30 11:33N 43°16' E 006°37'0 0.0
2014-Aug-30 10:33N 43°16' E 006°37'0 0.0
2014-Aug-30 09:33N 43°16' E 006°37'0 0.0
2014-Aug-30 08:32N 43°16' E 006°37'0 0.0
2014-Aug-30 07:33N 43°16' E 006°37'0 0.0
2014-Aug-30 06:33N 43°16' E 006°38'8 7.5
2014-Aug-30 05:33N 43°20' E 006°46'1610.8
2014-Aug-30 04:03N 43°32' E 007°01'0 0.0
2014-Aug-30 03:33N 43°32' E 007°01'0 0.0
2014-Aug-30 02:33N 43°32' E 007°01'0 0.0
2014-Aug-30 01:14N 43°32' E 007°01'0 0.0
2014-Aug-30 00:26N 43°32' E 007°01'0 0.0
2014-Aug-29 23:17N 43°32' E 007°01'0 0.0
2014-Aug-29 22:28N 43°32' E 007°01'0 0.0
2014-Aug-29 21:32N 43°32' E 007°01'0 0.0
2014-Aug-29 20:31N 43°32' E 007°01'0 0.0
2014-Aug-29 18:19N 43°32' E 007°01'0 0.0
2014-Aug-29 16:33N 43°32' E 007°01'0 0.0
2014-Aug-29 15:32N 43°32' E 007°01'0 0.0
2014-Aug-29 14:32N 43°32' E 007°01'0 0.0
2014-Aug-29 13:28N 43°32' E 007°01'  

Dump ship's entire track history